Flight Track Log - Related Links

Times and Time Zones

All times are in EDT time to prevent confusion due to time zone crossing. See the N171CA flight status page for this flight to view local times or setup timezone preferences in your user account.

Time Position Orientation Groundspeed Altitude Reporting Facility
EDT Latitude Longitude Course Direction KTS MPH feet Rate Location/Type
Thu 09:04:47 AM 30.3219 -81.5281 144° Southeast 91 105 500  Level Jacksonville Center
Thu 09:05:36 AM 30.3050 -81.5139 144° Southeast 116 133 1,200 764 Climbing Jacksonville Center
Thu 09:06:37 AM 30.2839 -81.4853 131° Southeast 112 129 1,900 689 Climbing Jacksonville Center
Thu 09:07:38 AM 30.2689 -81.4567 121° Southeast 108 124 2,600 689 Climbing Jacksonville Center
Thu 09:08:39 AM 30.2436 -81.4356 144° Southeast 110 127 3,300 639 Climbing Jacksonville Center
Thu 09:09:40 AM 30.2103 -81.4336 177° South 116 133 3,900 347 Climbing Jacksonville Center
Thu 09:10:40 AM 30.1725 -81.4269 171° South 139 160 4,000 50 Climbing Jacksonville Center
Thu 09:11:41 AM 30.1347 -81.4203 171° South 145 167 4,000  Level Jacksonville Center
Thu 09:12:42 AM 30.0950 -81.4136 172° South 139 160 4,000 -49 Level Jacksonville Center
Thu 09:13:43 AM 30.0553 -81.4119 178° South 143 165 3,900 -49 Descending Jacksonville Center
Thu 09:14:44 AM 30.0136 -81.4125 181° South 142 163 3,900  Level Jacksonville Center
Thu 09:15:46 AM 29.9739 -81.4156 184° South 137 158 3,900 96 Level Jacksonville Center
Thu 09:16:49 AM 29.9344 -81.4161 181° South 134 154 4,100 54 Climbing Jacksonville Center
Thu 09:17:37 AM 29.9011 -81.4192 185° South 137 158 4,000 -55 Descending Jacksonville Center
Thu 09:18:38 AM 29.8633 -81.4172 177° South 139 160 4,000  Level Jacksonville Center
Thu 09:19:39 AM 29.8236 -81.4131 175° South 139 160 4,000 49 Level Jacksonville Center
Thu 09:20:40 AM 29.7861 -81.4136 181° South 138 159 4,100  Climbing Jacksonville Center
Thu 09:21:41 AM 29.7464 -81.4167 184° South 141 162 4,000 -49 Descending Jacksonville Center
Thu 09:22:42 AM 29.7047 -81.4150 178° South 142 163 4,000  Level Jacksonville Center
Thu 09:23:43 AM 29.6672 -81.4156 181° South 137 158 4,000  Level Jacksonville Center
Thu 09:24:37 AM 29.6317 -81.4158 180° South 134 154 4,000  Level Jacksonville Center
Thu 09:25:38 AM 29.5942 -81.4164 181° South 137 158 4,000  Level Jacksonville Center
Thu 09:26:39 AM 29.5564 -81.4122 175° South 136 157 4,000  Level Jacksonville Center
Thu 09:27:34 AM 29.5208 -81.4081 174° South 137 158 4,000  Level Jacksonville Center
Thu 09:28:41 AM 29.4792 -81.4089 181° South 139 160 4,000  Level Jacksonville Center
Thu 09:29:41 AM 29.4375 -81.4022 172° South 139 160 4,000  Level Jacksonville Center
Thu 09:30:48 AM 29.3956 -81.4006 178° South 140 161 4,000 -49 Level Jacksonville Center
Thu 09:31:43 AM 29.3600 -81.4011 181° South 141 162 3,900  Descending Jacksonville Center
Thu 09:32:44 AM 29.3225 -81.4017 181° South 137 158 4,000  Climbing Jacksonville Center
Thu 09:33:45 AM 29.2850 -81.3975 174° South 136 157 3,900  Descending Jacksonville Center
Thu 09:34:46 AM 29.2431 -81.3933 175° South 135 155 4,000 47 Climbing Jacksonville Center
Thu 09:35:52 AM 29.2036 -81.3961 184° South 136 157 4,000  Level Jacksonville Center
Thu 09:36:53 AM 29.1658 -81.3944 178° South 141 162 4,000 -30 Level Jacksonville Center
Thu 09:39:13 AM 29.0667 -81.3833 174° South 141 162 3,900 -30 Descending Orlando TRACON
Thu 09:40:13 AM 29.0333 -81.3833 180° South 139 160 3,900 50 Level Orlando TRACON
Thu 09:41:13 AM 29.0000 -81.3833 180° South 138 159 4,000 50 Climbing Orlando TRACON
Thu 09:42:13 AM 28.9667 -81.3833 180° South 139 160 4,000  Level Orlando TRACON
Thu 09:43:13 AM 28.9167 -81.3833 180° South 138 159 4,000 -300 Level Orlando TRACON
Thu 09:44:13 AM 28.8833 -81.3833 180° South 141 162 3,400 -595 Descending Orlando TRACON
Thu 09:45:14 AM 28.8500 -81.4000 204° Southwest 145 167 2,800 -645 Descending Orlando TRACON
Thu 09:46:14 AM 28.8000 -81.4000 180° South 136 157 2,100 -550 Descending Orlando TRACON
Thu 09:47:14 AM 28.7833 -81.3833 139° Southeast 127 146 1,700 -250 Descending Orlando TRACON
Thu 09:48:14 AM 28.7833 -81.3667 90° East 100 115 1,600 -200 Descending Orlando TRACON
Thu 09:49:14 AM 28.7833 -81.3333 90° East 105 121 1,300 -400 Descending Orlando TRACON
Thu 09:50:14 AM 28.7833 -81.3000 90° East 105 121 800 -500 Descending Orlando TRACON
Thu 09:52:00 AM 28.7759 -81.2332 97° East  Level FlightAware Approximate
Thu 09:59:00 AM 28.7767 -81.2355 270° West  Level Estimated
Thu 10:00:00 AM 28.7767 -81.2355 270° West  Level Estimated
Thu 10:01:00 AM 28.7767 -81.2355 95° East  Level Estimated

Login

Don't have an account? Register now (free) for customized features, flight alerts, and more!